createdAt,value
2023-04-28T05:01:44.066Z,12.96
2023-04-28T05:04:46.052Z,12.55
2023-04-28T05:07:50.032Z,12.29
2023-04-28T05:10:51.683Z,12.28
2023-04-28T05:13:54.196Z,12.35
2023-04-28T05:16:55.788Z,12.44
2023-04-28T05:20:00.446Z,12.42
2023-04-28T05:23:02.793Z,12.50
2023-04-28T05:26:04.991Z,12.58
2023-04-28T05:29:06.816Z,12.66
2023-04-28T05:32:08.373Z,12.73
2023-04-28T05:35:10.086Z,12.79
2023-04-28T05:38:11.647Z,12.80
2023-04-28T05:41:13.177Z,12.79
2023-04-28T05:44:15.907Z,12.85
2023-04-28T05:47:17.522Z,12.87
2023-04-28T05:50:19.019Z,12.84
2023-04-28T05:53:20.615Z,12.87
2023-04-28T05:56:23.186Z,12.87
2023-04-28T05:59:24.745Z,12.86
2023-04-28T06:02:27.969Z,12.89
2023-04-28T06:05:31.220Z,12.96
2023-04-28T06:08:33.151Z,13.05
2023-04-28T06:11:34.669Z,13.07
2023-04-28T06:14:37.749Z,13.07
2023-04-28T06:17:39.645Z,13.09
2023-04-28T06:20:41.258Z,13.14
2023-04-28T06:23:43.479Z,13.17
2023-04-28T06:26:45.519Z,13.15
2023-04-28T06:29:47.037Z,13.15
2023-04-28T06:32:49.108Z,13.16
2023-04-28T06:35:50.912Z,13.15
2023-04-28T06:38:52.365Z,13.05
2023-04-28T06:41:53.848Z,12.97
2023-04-28T06:44:57.557Z,13.00
2023-04-28T06:47:59.162Z,13.04
2023-04-28T06:51:00.819Z,13.03
2023-04-28T06:54:02.270Z,12.94
2023-04-28T06:57:03.860Z,12.84
2023-04-28T07:00:06.426Z,12.80
2023-04-28T07:03:08.191Z,12.70
2023-04-28T07:06:11.381Z,12.39
2023-04-28T07:09:12.927Z,12.11
2023-04-28T07:12:14.986Z,12.00
2023-04-28T07:15:16.645Z,12.00
2023-04-28T07:18:18.158Z,11.97
2023-04-28T07:21:21.600Z,12.01
2023-04-28T07:24:23.451Z,12.00
2023-04-28T07:27:24.925Z,12.00
2023-04-28T07:30:27.830Z,12.05
2023-04-28T07:33:29.992Z,12.09
2023-04-28T07:36:32.055Z,12.11
2023-04-28T07:39:34.905Z,12.12
2023-04-28T07:42:36.492Z,12.21
2023-04-28T07:45:40.012Z,12.28
2023-04-28T07:48:41.752Z,12.36
2023-04-28T07:51:43.198Z,12.48
2023-04-28T07:54:44.667Z,12.51
2023-04-28T07:57:46.377Z,12.54
2023-04-28T08:00:47.975Z,12.53
2023-04-28T08:03:49.796Z,12.45
2023-04-28T08:06:51.441Z,12.51
2023-04-28T08:09:53.897Z,12.63
2023-04-28T08:12:55.511Z,12.82
2023-04-28T08:15:57.122Z,12.93
2023-04-28T08:19:00.331Z,12.94
2023-04-28T08:22:05.750Z,12.97
2023-04-28T08:25:07.992Z,13.00
2023-04-28T08:28:10.077Z,13.00
2023-04-28T08:31:11.576Z,13.09
2023-04-28T08:34:15.847Z,13.14
2023-04-28T08:37:18.042Z,13.17
2023-04-28T08:40:19.670Z,13.29
2023-04-28T08:43:21.562Z,13.34
2023-04-28T08:46:24.134Z,13.31
2023-04-28T08:49:35.136Z,13.27
2023-04-28T08:52:36.619Z,13.31
2023-04-28T08:55:38.910Z,13.35
2023-04-28T08:58:40.562Z,13.57
2023-04-28T09:01:42.073Z,13.87
2023-04-28T09:04:44.085Z,14.11
2023-04-28T09:07:46.880Z,14.45
2023-04-28T09:10:48.574Z,14.71
2023-04-28T09:13:50.169Z,14.63
2023-04-28T09:16:52.155Z,14.63
2023-04-28T09:19:53.689Z,14.60
2023-04-28T09:22:56.812Z,14.57
2023-04-28T09:26:06.548Z,14.65
2023-04-28T09:29:13.954Z,14.86
2023-04-28T09:32:23.534Z,15.02
2023-04-28T09:35:41.614Z,14.83
2023-04-28T09:38:45.952Z,14.66
2023-04-28T09:41:47.482Z,14.66
2023-04-28T09:44:54.830Z,14.92
2023-04-28T09:48:10.755Z,15.02
2023-04-28T09:51:13.188Z,14.86
2023-04-28T09:54:16.085Z,14.72
2023-04-28T09:57:19.010Z,14.72
2023-04-28T10:00:22.071Z,14.99
2023-04-28T10:03:28.434Z,15.34
2023-04-28T10:06:31.198Z,15.52
2023-04-28T10:09:33.103Z,15.48
2023-04-28T10:12:35.071Z,15.48
2023-04-28T10:15:37.463Z,15.50
2023-04-28T10:18:39.453Z,15.43
2023-04-28T10:21:49.468Z,15.21
2023-04-28T10:25:12.911Z,15.17
2023-04-28T10:28:15.052Z,15.38
2023-04-28T10:31:22.044Z,15.90
2023-04-28T10:34:24.502Z,16.06
2023-04-28T10:38:10.656Z,16.20
2023-04-28T10:41:32.227Z,16.71
2023-04-28T10:44:33.671Z,17.26
2023-04-28T10:48:06.077Z,17.13
2023-04-28T10:51:07.951Z,16.95
2023-04-28T10:54:09.894Z,16.78
2023-04-28T10:57:18.932Z,16.88
2023-04-28T11:00:28.473Z,17.31
2023-04-28T11:03:41.941Z,17.82
2023-04-28T11:06:46.982Z,18.10
2023-04-28T11:09:49.776Z,18.32
2023-04-28T11:13:31.722Z,18.77
2023-04-28T11:16:34.316Z,18.89
2023-04-28T11:19:41.081Z,18.97
2023-04-28T11:22:42.768Z,18.83
2023-04-28T11:25:57.908Z,18.85
2023-04-28T11:28:59.481Z,18.97
2023-04-28T11:32:02.023Z,19.09
2023-04-28T11:35:04.892Z,19.48
2023-04-28T11:38:06.505Z,19.62
2023-04-28T11:41:08.104Z,19.83
2023-04-28T11:44:13.864Z,19.93
2023-04-28T11:47:15.456Z,20.08
2023-04-28T11:50:17.616Z,20.28
2023-04-28T11:53:19.510Z,19.93
2023-04-28T11:56:21.301Z,20.06
2023-04-28T11:59:31.725Z,20.25
2023-04-28T12:02:33.751Z,20.55
2023-04-28T12:05:38.919Z,20.25
2023-04-28T12:08:40.684Z,20.21
2023-04-28T12:11:53.877Z,20.49
2023-04-28T12:15:01.637Z,20.60
2023-04-28T12:18:11.776Z,20.86
2023-04-28T12:21:21.324Z,21.11
2023-04-28T12:24:24.653Z,21.42
2023-04-28T12:27:26.690Z,21.32
2023-04-28T12:30:29.395Z,21.41
2023-04-28T12:33:30.958Z,21.80
2023-04-28T12:36:32.504Z,22.36
2023-04-28T12:39:38.628Z,22.34
2023-04-28T12:42:41.614Z,21.97
2023-04-28T12:45:43.432Z,21.68
2023-04-28T12:48:44.927Z,21.25
2023-04-28T12:51:46.537Z,20.92
2023-04-28T12:54:49.020Z,20.89
2023-04-28T12:57:50.504Z,21.23
2023-04-28T13:00:52.018Z,21.55
2023-04-28T13:03:53.729Z,21.41
2023-04-28T13:06:55.433Z,20.98
2023-04-28T13:09:56.934Z,21.10
2023-04-28T13:12:58.420Z,21.23
2023-04-28T13:15:59.929Z,20.58
2023-04-28T13:19:03.326Z,20.54
2023-04-28T13:22:06.631Z,20.80
2023-04-28T13:25:09.381Z,20.95
2023-04-28T13:28:10.915Z,21.09
2023-04-28T13:31:12.939Z,21.85
2023-04-28T13:34:18.756Z,22.11
2023-04-28T13:37:20.367Z,22.07
2023-04-28T13:40:22.101Z,21.84
2023-04-28T13:43:23.569Z,21.73
2023-04-28T13:46:25.126Z,21.39
2023-04-28T13:49:26.589Z,21.82
2023-04-28T13:52:28.093Z,22.24
2023-04-28T13:55:29.897Z,22.15
2023-04-28T13:58:31.473Z,22.05
2023-04-28T14:01:33.047Z,21.62
2023-04-28T14:04:34.666Z,21.10
2023-04-28T14:07:36.366Z,21.04
2023-04-28T14:10:37.823Z,20.96
2023-04-28T14:13:39.267Z,20.92
2023-04-28T14:16:41.046Z,21.07
2023-04-28T14:19:42.546Z,21.53
2023-04-28T14:22:44.100Z,21.68
2023-04-28T14:25:45.675Z,21.78
2023-04-28T14:28:47.879Z,21.45
2023-04-28T14:31:49.402Z,21.09
2023-04-28T14:34:51.211Z,21.08
2023-04-28T14:37:53.402Z,20.80
2023-04-28T14:40:54.858Z,20.87
2023-04-28T14:43:56.769Z,20.63
2023-04-28T14:46:59.159Z,20.56
2023-04-28T14:50:00.794Z,20.31
2023-04-28T14:53:06.832Z,20.29
2023-04-28T14:56:18.544Z,20.66
2023-04-28T14:59:21.100Z,21.22
2023-04-28T15:02:28.249Z,21.48
2023-04-28T15:05:30.043Z,21.42
2023-04-28T15:08:33.214Z,21.85
2023-04-28T15:11:34.688Z,21.96
2023-04-28T15:14:36.491Z,21.90
2023-04-28T15:17:37.987Z,21.41
2023-04-28T15:20:39.539Z,20.90
2023-04-28T15:23:41.567Z,20.31
2023-04-28T15:26:43.029Z,19.91
2023-04-28T15:29:44.551Z,19.45
2023-04-28T15:32:46.509Z,19.40
2023-04-28T15:35:48.142Z,19.49
2023-04-28T15:38:51.734Z,19.43
2023-04-28T15:41:53.304Z,19.48
2023-04-28T15:44:54.776Z,19.93
2023-04-28T15:47:56.390Z,20.40
2023-04-28T15:50:58.475Z,20.40
2023-04-28T15:54:00.284Z,19.86
2023-04-28T15:57:01.810Z,19.53
2023-04-28T16:00:03.884Z,19.37
2023-04-28T16:03:09.320Z,19.45
2023-04-28T16:06:11.138Z,19.27
2023-04-28T16:09:12.726Z,19.12
2023-04-28T16:12:14.228Z,18.92
2023-04-28T16:15:15.998Z,18.96
2023-04-28T16:18:17.944Z,19.08
2023-04-28T16:21:19.392Z,19.08
2023-04-28T16:24:22.345Z,19.15
2023-04-28T16:27:23.810Z,19.16
2023-04-28T16:30:26.441Z,19.24
2023-04-28T16:33:27.938Z,19.52
2023-04-28T16:36:35.539Z,20.09
2023-04-28T16:39:37.260Z,20.25
2023-04-28T16:42:39.560Z,20.12
2023-04-28T16:45:41.374Z,19.81
2023-04-28T16:48:44.059Z,19.86
2023-04-28T16:51:57.756Z,20.55
2023-04-28T16:55:00.417Z,21.21
2023-04-28T16:58:03.011Z,22.62
2023-04-28T17:01:04.662Z,21.89
2023-04-28T17:04:07.079Z,21.75
2023-04-28T17:07:08.672Z,21.05
2023-04-28T17:10:10.532Z,20.23
2023-04-28T17:13:12.194Z,19.84
2023-04-28T17:16:13.748Z,19.58
2023-04-28T17:19:15.487Z,19.79
2023-04-28T17:22:17.051Z,23.89
2023-04-28T17:25:18.890Z,27.31
2023-04-28T17:28:20.728Z,29.05
2023-04-28T17:31:22.867Z,29.30
2023-04-28T17:34:24.490Z,29.20
2023-04-28T17:37:26.253Z,29.42
2023-04-28T17:40:27.900Z,29.07
2023-04-28T17:43:30.430Z,28.31
2023-04-28T17:46:32.409Z,26.28
2023-04-28T17:49:34.110Z,24.53
2023-04-28T17:52:36.402Z,24.00
2023-04-28T17:55:38.026Z,24.27
2023-04-28T17:58:39.532Z,23.30
2023-04-28T18:01:41.015Z,21.71
2023-04-28T18:04:42.930Z,20.57
2023-04-28T18:07:44.471Z,19.50
2023-04-28T18:10:46.068Z,18.83
2023-04-28T18:13:47.631Z,18.46
2023-04-28T18:16:49.368Z,18.16
2023-04-28T18:19:52.261Z,17.81
2023-04-28T18:22:53.740Z,17.59
2023-04-28T18:25:55.299Z,17.50
2023-04-28T18:28:56.774Z,17.31
2023-04-28T18:31:58.413Z,17.06
2023-04-28T18:35:00.582Z,16.84
2023-04-28T18:38:02.845Z,16.78
2023-04-28T18:41:18.303Z,16.90
2023-04-28T18:44:19.883Z,16.79
2023-04-28T18:47:21.444Z,16.82
2023-04-28T18:50:23.641Z,16.85
2023-04-28T18:53:25.206Z,16.74
2023-04-28T18:56:26.699Z,16.77
2023-04-28T18:59:28.250Z,16.88
2023-04-28T19:02:29.823Z,16.88
2023-04-28T19:05:31.358Z,16.84
2023-04-28T19:08:32.756Z,16.81
2023-04-28T19:11:34.275Z,16.74
2023-04-28T19:14:36.094Z,16.68
2023-04-28T19:17:37.576Z,16.58
2023-04-28T19:20:39.153Z,16.53
2023-04-28T19:23:40.882Z,16.61
2023-04-28T19:26:42.348Z,16.61
2023-04-28T19:29:43.760Z,16.54
2023-04-28T19:32:45.446Z,16.44
2023-04-28T19:35:47.258Z,16.32
2023-04-28T19:38:48.779Z,16.15
2023-04-28T19:41:50.591Z,16.02
2023-04-28T19:44:58.001Z,15.94
2023-04-28T19:47:59.475Z,15.78
2023-04-28T19:51:00.976Z,15.76
2023-04-28T19:54:02.482Z,15.68
2023-04-28T19:57:04.142Z,15.58
2023-04-28T20:00:10.125Z,15.50
2023-04-28T20:03:11.702Z,15.46
2023-04-28T20:06:17.529Z,15.43
2023-04-28T20:09:19.101Z,15.38
2023-04-28T20:12:24.066Z,15.39
2023-04-28T20:15:25.509Z,15.39
2023-04-28T20:18:27.244Z,15.37
2023-04-28T20:21:28.862Z,15.35
2023-04-28T20:24:30.600Z,15.33
2023-04-28T20:27:34.273Z,15.26
2023-04-28T20:30:35.833Z,15.16
2023-04-28T20:33:37.363Z,15.05
2023-04-28T20:36:41.128Z,14.96
2023-04-28T20:39:44.135Z,14.94
2023-04-28T20:42:45.705Z,14.89
2023-04-28T20:45:47.360Z,14.86
2023-04-28T20:48:49.021Z,14.84
2023-04-28T20:51:50.518Z,14.71
2023-04-28T20:54:54.013Z,14.69
2023-04-28T20:57:56.078Z,14.66
2023-04-28T21:00:57.640Z,14.66
2023-04-28T21:03:59.354Z,14.63
2023-04-28T21:07:00.951Z,14.58
2023-04-28T21:10:02.615Z,14.63
2023-04-28T21:13:04.627Z,14.67
2023-04-28T21:16:11.760Z,14.62
2023-04-28T21:19:13.512Z,14.54
2023-04-28T21:22:15.142Z,14.43
2023-04-28T21:25:16.612Z,14.37
2023-04-28T21:28:18.306Z,14.36
2023-04-28T21:31:20.038Z,14.29
2023-04-28T21:34:21.517Z,14.16
2023-04-28T21:37:23.555Z,14.08
2023-04-28T21:40:25.107Z,14.00
2023-04-28T21:43:26.553Z,14.04
2023-04-28T21:46:28.431Z,14.00
2023-04-28T21:49:30.098Z,13.94
2023-04-28T21:52:31.624Z,13.90
2023-04-28T21:55:33.154Z,13.91
2023-04-28T21:58:35.778Z,13.85
2023-04-28T22:01:38.298Z,13.75
2023-04-28T22:04:40.276Z,13.71
2023-04-28T22:07:42.191Z,13.64
2023-04-28T22:10:45.424Z,13.58
2023-04-28T22:13:46.960Z,13.51
2023-04-28T22:16:48.396Z,13.46
2023-04-28T22:19:50.028Z,13.46
2023-04-28T22:22:51.717Z,13.49
2023-04-28T22:25:53.228Z,13.50
2023-04-28T22:28:55.201Z,13.47
2023-04-28T22:31:57.911Z,13.42
2023-04-28T22:34:59.379Z,13.41
2023-04-28T22:38:00.861Z,13.46
2023-04-28T22:41:02.643Z,13.47
2023-04-28T22:44:04.232Z,13.45
2023-04-28T22:47:05.729Z,13.41
2023-04-28T22:50:11.241Z,13.43
2023-04-28T22:53:12.715Z,13.36
2023-04-28T22:56:14.967Z,13.25
2023-04-28T22:59:16.510Z,13.27
2023-04-28T23:02:18.138Z,13.23
2023-04-28T23:05:19.610Z,13.23
2023-04-28T23:08:22.456Z,13.20
2023-04-28T23:11:24.951Z,13.15
2023-04-28T23:14:26.392Z,13.09
2023-04-28T23:17:27.913Z,13.01
2023-04-28T23:20:29.379Z,12.99
2023-04-28T23:23:32.557Z,12.97
2023-04-28T23:26:34.067Z,12.98
2023-04-28T23:29:36.016Z,12.97
2023-04-28T23:32:37.567Z,12.91
2023-04-28T23:35:40.916Z,12.90
2023-04-28T23:38:42.460Z,12.86
2023-04-28T23:41:43.958Z,12.80
2023-04-28T23:44:45.448Z,12.77
2023-04-28T23:47:47.807Z,12.78
2023-04-28T23:50:50.472Z,12.74
2023-04-28T23:53:52.331Z,12.68
2023-04-28T23:56:53.825Z,12.59
2023-04-28T23:59:55.280Z,12.58
